Fort Pike — WAA9418 — position and weather

sailwx.info

Track history (hours):
 
Tides and Currents Weather Stations Pressure Air Temp Water Temp Dewpoint Dewpoint Depression Visibility Wind Speed Wind Dir Waves Ship Positions

Fort Pike

Owner: Salisbury Towing Corporation, Chesapeak, VA. More information available from US FCC via Universal Licensing System and Coast Guard Vessel Documentation Center.

Last reported at 2017-Apr-26 11:09 UTC. Time now 2017-Apr-26 19:28 UTC.
Position N 36°43' W 076°14'.

Length 18 m; draft 2.5 m.

Type: Tug. MMSI: 366948310.

Date/timePositionNaut miles runAvg speedWind from/ knotsBaromVisibWave heightAir tempDewpointWater temp
2017-Apr-26 11:09N 36°43' W 076°14'1 0.8
2017-Apr-26 10:06N 36°43' W 076°15'0 0.8
2017-Apr-26 10:00N 36°43' W 076°15'3 5.1
2017-Apr-26 09:30N 36°45' W 076°18'2 5.0
2017-Apr-26 09:00N 36°47' W 076°18'3 6.2
2017-Apr-26 08:30N 36°50' W 076°18'2 3.0
2017-Apr-26 08:00N 36°50' W 076°16'4 1.1
2017-Apr-26 04:31N 36°52' W 076°20'0 9.4
2017-Apr-26 04:30N 36°52' W 076°20'3 6.4
2017-Apr-26 04:00N 36°50' W 076°17'1 0.2
2017-Apr-26 01:23N 36°50' W 076°16'0 0.0
2017-Apr-26 00:54N 36°50' W 076°16'0 0.0
2017-Apr-26 00:22N 36°50' W 076°16'0 0.1
2017-Apr-25 23:54N 36°50' W 076°16'0 0.2
2017-Apr-25 23:30N 36°50' W 076°16'3 5.6
2017-Apr-25 22:57N 36°52' W 076°19'0 0.4
2017-Apr-25 22:30N 36°51' W 076°20'3 5.9
2017-Apr-25 22:00N 36°49' W 076°17'3 5.8
2017-Apr-25 21:30N 36°46' W 076°18'1 1.4
2017-Apr-25 21:00N 36°46' W 076°18'1 1.6
2017-Apr-25 20:30N 36°45' W 076°18'2 4.2
2017-Apr-25 20:01N 36°47' W 076°18'3 6.2
2017-Apr-25 19:30N 36°50' W 076°18'0 0.8
2017-Apr-25 18:57N 36°50' W 076°17'0 0.0
2017-Apr-25 18:30N 36°50' W 076°17'2 3.0
2017-Apr-25 18:00N 36°50' W 076°16'1 0.5
2017-Apr-25 16:34N 36°50' W 076°15'0 0.0
2017-Apr-25 16:30N 36°50' W 076°15'0 0.0
2017-Apr-25 15:57N 36°50' W 076°15'2 4.6
2017-Apr-25 15:30N 36°51' W 076°17'0 0.5
2017-Apr-25 15:00N 36°50' W 076°17'0 0.0
2017-Apr-25 14:30N 36°50' W 076°17'0 0.0
2017-Apr-25 13:30N 36°50' W 076°17'0 0.0
2017-Apr-25 13:00N 36°50' W 076°17'0 0.0
2017-Apr-25 12:30N 36°50' W 076°17'0 0.8
2017-Apr-25 12:00N 36°50' W 076°17'0 0.7
2017-Apr-25 11:28N 36°50' W 076°17'0 0.0
2017-Apr-25 10:58N 36°50' W 076°17'0 0.0
2017-Apr-25 10:28N 36°50' W 076°17'0 0.8
2017-Apr-25 10:00N 36°51' W 076°18'0 0.7
2017-Apr-25 09:29N 36°50' W 076°17'0 0.0
2017-Apr-25 08:59N 36°50' W 076°17'0 0.0
2017-Apr-25 08:29N 36°50' W 076°17'0 0.0
2017-Apr-25 07:59N 36°50' W 076°17'0 0.0
2017-Apr-25 07:29N 36°50' W 076°17'0 0.0
2017-Apr-25 06:59N 36°50' W 076°17'0 0.0
2017-Apr-25 06:29N 36°50' W 076°17'0 0.0
2017-Apr-25 05:59N 36°50' W 076°17'0 0.0
2017-Apr-25 05:26N 36°50' W 076°17'0 0.0
2017-Apr-25 04:59N 36°50' W 076°17'0 0.0
2017-Apr-25 04:29N 36°50' W 076°17'0 0.0
2017-Apr-25 03:59N 36°50' W 076°17'0 0.0
2017-Apr-25 03:29N 36°50' W 076°17'0 0.0
2017-Apr-25 03:00N 36°50' W 076°17'0 0.0
2017-Apr-25 02:30N 36°50' W 076°17'0 0.0
2017-Apr-25 02:00N 36°50' W 076°17'0 0.0
2017-Apr-25 01:31N 36°50' W 076°17'0 0.0
2017-Apr-25 01:00N 36°50' W 076°17'0 0.0
2017-Apr-25 00:30N 36°50' W 076°17'1 2.4
2017-Apr-25 00:00N 36°49' W 076°17'0 0.0
2017-Apr-24 23:30N 36°49' W 076°17'0 0.0
2017-Apr-24 23:00N 36°49' W 076°17'2 3.4
2017-Apr-24 22:30N 36°47' W 076°18'0 0.0
2017-Apr-24 22:00N 36°47' W 076°18'0 0.0
2017-Apr-24 21:30N 36°47' W 076°18'0 0.0
2017-Apr-24 21:00N 36°47' W 076°18'0 0.0
2017-Apr-24 20:30N 36°47' W 076°18'0 0.0
2017-Apr-24 20:00N 36°47' W 076°18'0 0.0
2017-Apr-24 19:30N 36°47' W 076°18'0 0.0
2017-Apr-24 19:00N 36°47' W 076°18'0 0.0
2017-Apr-24 18:30N 36°47' W 076°18'0 0.0
2017-Apr-24 18:00N 36°47' W 076°18'2 3.1
2017-Apr-24 17:30N 36°49' W 076°18'1 1.5
2017-Apr-24 17:00N 36°50' W 076°18'2 4.5
2017-Apr-24 16:30N 36°50' W 076°15'0 0.2
2017-Apr-24 16:00N 36°50' W 076°15'0 0.0
2017-Apr-24 15:30N 36°50' W 076°15'0 0.0
2017-Apr-24 15:00N 36°50' W 076°15'0 0.0
2017-Apr-24 14:30N 36°50' W 076°15'2 1.7
2017-Apr-24 13:30N 36°50' W 076°17'2 3.0
2017-Apr-24 12:55N 36°50' W 076°15'0 0.4
2017-Apr-24 12:30N 36°50' W 076°15'1 2.8
2017-Apr-24 12:00N 36°50' W 076°17'0 0.7
2017-Apr-24 11:30N 36°50' W 076°17'1 2.0
2017-Apr-24 11:01N 36°50' W 076°16'0 0.0
2017-Apr-24 10:30N 36°50' W 076°16'0 0.0
2017-Apr-24 10:00N 36°50' W 076°16'0 0.0
2017-Apr-24 09:30N 36°50' W 076°16'0 0.0
2017-Apr-24 09:00N 36°50' W 076°16'0 0.0
2017-Apr-24 08:30N 36°50' W 076°16'0 0.0
2017-Apr-24 08:00N 36°50' W 076°16'0 0.0
2017-Apr-24 07:30N 36°50' W 076°16'0 0.0
2017-Apr-24 07:00N 36°50' W 076°16'0 0.0
2017-Apr-24 06:30N 36°50' W 076°16'0 0.0
2017-Apr-24 06:01N 36°50' W 076°16'0 0.0
2017-Apr-24 05:30N 36°50' W 076°16'0 0.0
2017-Apr-24 05:00N 36°50' W 076°16'0 0.0
2017-Apr-24 04:30N 36°50' W 076°16'0 0.0
2017-Apr-24 04:00N 36°50' W 076°16'0 0.0
2017-Apr-24 03:30N 36°50' W 076°16'0 0.0
2017-Apr-24 03:00N 36°50' W 076°16'0 0.0
2017-Apr-24 02:30N 36°50' W 076°16'0 0.0
2017-Apr-24 02:00N 36°50' W 076°16'0 0.0
2017-Apr-24 01:30N 36°50' W 076°16'0 0.0
2017-Apr-24 01:00N 36°50' W 076°16'0 0.0
2017-Apr-24 00:30N 36°50' W 076°16'0 0.0
2017-Apr-24 00:00N 36°50' W 076°16'0 0.0
2017-Apr-23 23:30N 36°50' W 076°16'0 0.0
2017-Apr-23 23:00N 36°50' W 076°16'0 0.0
2017-Apr-23 22:30N 36°50' W 076°16'0 0.0
2017-Apr-23 22:00N 36°50' W 076°16'0 0.0
2017-Apr-23 21:30N 36°50' W 076°16'0 0.5
2017-Apr-23 21:00N 36°50' W 076°16'1 2.1
2017-Apr-23 20:30N 36°50' W 076°17'0 0.0
2017-Apr-23 20:00N 36°50' W 076°17'0 0.0
2017-Apr-23 19:30N 36°50' W 076°17'0 0.0
2017-Apr-23 19:01N 36°50' W 076°17'0 0.0
2017-Apr-23 18:30N 36°50' W 076°17'0 0.0
2017-Apr-23 18:00N 36°50' W 076°17'0 0.0
2017-Apr-23 17:30N 36°50' W 076°17'0 0.0
2017-Apr-23 17:00N 36°50' W 076°17'0 0.0
2017-Apr-23 16:30N 36°50' W 076°17'0 0.0
2017-Apr-23 16:00N 36°50' W 076°17'0 0.0
2017-Apr-23 15:30N 36°50' W 076°17'0 0.0
2017-Apr-23 15:00N 36°50' W 076°17'0 0.0
2017-Apr-23 14:00N 36°50' W 076°17'0 0.0
2017-Apr-23 13:30N 36°50' W 076°17'0 0.0
2017-Apr-23 13:00N 36°50' W 076°17'0 0.0
2017-Apr-23 12:30N 36°50' W 076°17'0 0.0
2017-Apr-23 12:00N 36°50' W 076°17'0 0.0
2017-Apr-23 11:30N 36°50' W 076°17'0 0.0
2017-Apr-23 11:00N 36°50' W 076°17'0 0.0
2017-Apr-23 10:30N 36°50' W 076°17'0 0.0
2017-Apr-23 10:00N 36°50' W 076°17'0 0.0
2017-Apr-23 09:30N 36°50' W 076°17'2 3.9
2017-Apr-23 09:00N 36°48' W 076°17'3 5.9
2017-Apr-23 08:30N 36°45' W 076°18'1 2.2
2017-Apr-23 08:00N 36°44' W 076°18'3 5.6
2017-Apr-23 07:30N 36°47' W 076°18'1 1.1
2017-Apr-23 07:00N 36°47' W 076°18'0 0.6
2017-Apr-23 06:30N 36°47' W 076°18'2 0.3
2017-Apr-22 22:52N 36°45' W 076°18'2 5.7
2017-Apr-22 22:31N 36°47' W 076°18'3 6.0
2017-Apr-22 22:00N 36°50' W 076°18'2 3.0
2017-Apr-22 21:28N 36°50' W 076°16'3 5.9
2017-Apr-22 20:55N 36°51' W 076°20'1 2.9
2017-Apr-22 20:30N 36°51' W 076°18'2 3.0
2017-Apr-22 19:50N 36°50' W 076°16'1 2.1
2017-Apr-22 19:30N 36°50' W 076°17'3 5.2
2017-Apr-22 18:56N 36°52' W 076°20'3 0.1
2017-Apr-21 13:28N 36°55' W 076°20'3 7.6
2017-Apr-21 13:00N 36°52' W 076°19'3 5.7
2017-Apr-21 12:30N 36°50' W 076°16'1 1.1
2017-Apr-21 12:00N 36°50' W 076°17'1 1.1
2017-Apr-21 11:30N 36°50' W 076°17'0 0.1
2017-Apr-21 10:57N 36°50' W 076°17'0 0.0
2017-Apr-21 10:24N 36°50' W 076°17'0 0.0
2017-Apr-21 10:00N 36°50' W 076°17'0 0.0
2017-Apr-21 09:30N 36°50' W 076°17'0 0.0
2017-Apr-21 09:00N 36°50' W 076°17'0 0.0
2017-Apr-21 08:30N 36°50' W 076°17'0 0.0
2017-Apr-21 07:48N 36°50' W 076°17'0 0.0
2017-Apr-21 07:30N 36°50' W 076°17'0 0.0
2017-Apr-21 07:00N 36°50' W 076°17'0 0.0
2017-Apr-21 06:30N 36°50' W 076°17'0 0.0
2017-Apr-21 06:00N 36°50' W 076°17'0 0.0
2017-Apr-21 05:30N 36°50' W 076°17'0 0.0
2017-Apr-21 05:00N 36°50' W 076°17'0 0.0
2017-Apr-21 04:30N 36°50' W 076°17'0 0.0
2017-Apr-21 03:54N 36°50' W 076°17'0 0.0
2017-Apr-21 03:27N 36°50' W 076°17'0 0.0
2017-Apr-21 02:51N 36°50' W 076°17'0 0.0
2017-Apr-21 02:30N 36°50' W 076°17'0 0.0
2017-Apr-21 02:00N 36°50' W 076°17'0 0.0
2017-Apr-21 01:30N 36°50' W 076°17'0 0.0
2017-Apr-21 01:00N 36°50' W 076°17'0 0.0
2017-Apr-21 00:27N 36°50' W 076°17'0 0.0
2017-Apr-21 00:00N 36°50' W 076°17'0 0.0
2017-Apr-20 23:24N 36°50' W 076°17'0 0.0
2017-Apr-20 23:00N 36°50' W 076°17'0 0.0
2017-Apr-20 22:30N 36°50' W 076°17'0 0.0
2017-Apr-20 22:00N 36°50' W 076°17'0 0.0
2017-Apr-20 21:30N 36°50' W 076°17'0 0.0
2017-Apr-20 21:00N 36°50' W 076°17'0 0.0
2017-Apr-20 20:30N 36°50' W 076°17'0 0.0
2017-Apr-20 20:00N 36°50' W 076°17'0 0.0
2017-Apr-20 19:30N 36°50' W 076°17'0 0.0
2017-Apr-20 18:59N 36°50' W 076°17'0 0.0
2017-Apr-20 18:29N 36°50' W 076°17'0 0.0
2017-Apr-20 17:59N 36°50' W 076°17'0 0.0
2017-Apr-20 17:24N 36°50' W 076°17'0 0.0
2017-Apr-20 16:59N 36°50' W 076°17'0 0.0
2017-Apr-20 16:30N 36°50' W 076°17'0 0.0
2017-Apr-20 15:42N 36°50' W 076°17'0 0.0
2017-Apr-20 15:24N 36°50' W 076°17'0 0.0
2017-Apr-20 14:36N 36°50' W 076°17'0 0.0
2017-Apr-20 14:24N 36°50' W 076°17'0 0.0
2017-Apr-20 13:29N 36°50' W 076°17'0 0.0
2017-Apr-20 12:50N 36°50' W 076°17'0 0.0
2017-Apr-20 12:29N 36°50' W 076°17'0 0.0
2017-Apr-20 12:00N 36°50' W 076°17'0 0.0
2017-Apr-20 11:21N 36°50' W 076°17'0 0.0
2017-Apr-20 11:00N 36°50' W 076°17'0 0.0
2017-Apr-20 10:29N 36°50' W 076°17'0 0.0
2017-Apr-20 09:59N 36°50' W 076°17'0 0.0
2017-Apr-20 09:29N 36°50' W 076°17'0 0.0
2017-Apr-20 09:00N 36°50' W 076°17'0 0.0
2017-Apr-20 08:29N 36°50' W 076°17'0 0.0
2017-Apr-20 08:00N 36°50' W 076°17'0 0.0
2017-Apr-20 07:29N 36°50' W 076°17'0 0.0
2017-Apr-20 06:59N 36°50' W 076°17'0 0.0
2017-Apr-20 06:29N 36°50' W 076°17'0 0.0
2017-Apr-20 05:59N 36°50' W 076°17'0 0.0
2017-Apr-20 05:29N 36°50' W 076°17'0 0.0
2017-Apr-20 05:00N 36°50' W 076°17'0 0.0
2017-Apr-20 04:29N 36°50' W 076°17'0 0.0
2017-Apr-20 03:59N 36°50' W 076°17'0 0.0
2017-Apr-20 03:29N 36°50' W 076°17'0 0.0
2017-Apr-20 02:59N 36°50' W 076°17'0 0.0
2017-Apr-20 01:44N 36°50' W 076°17'0 0.0
2017-Apr-20 01:29N 36°50' W 076°17'0 0.0
2017-Apr-19 23:59N 36°50' W 076°17'0 0.0
2017-Apr-19 23:29N 36°50' W 076°17'0 0.0
2017-Apr-19 22:32N 36°50' W 076°17'0 0.0
2017-Apr-19 22:29N 36°50' W 076°17'0 0.0
2017-Apr-19 21:53N 36°50' W 076°17'0 0.0
2017-Apr-19 20:53N 36°50' W 076°17'0 0.0
2017-Apr-19 20:29N 36°50' W 076°17'0 0.0
2017-Apr-19 19:56N 36°50' W 076°17'0 0.0
2017-Apr-19 19:29N 36°50' W 076°17'0 0.0
2017-Apr-19 18:59N 36°50' W 076°17'0 0.0
2017-Apr-19 18:31N 36°50' W 076°17'0 0.0
2017-Apr-19 18:01N 36°50' W 076°17'0 0.0
2017-Apr-19 17:30N 36°50' W 076°17'0 0.0
2017-Apr-19 16:59N 36°50' W 076°17'0 0.0
2017-Apr-19 16:30N 36°50' W 076°17'0 0.0
2017-Apr-19 16:01N 36°50' W 076°17'0 0.1
2017-Apr-19 15:31N 36°50' W 076°17'0 0.3
2017-Apr-19 15:00N 36°51' W 076°17'1 2.3
2017-Apr-19 14:30N 36°50' W 076°16'5 4.7
2017-Apr-19 13:31N 36°46' W 076°18'1 2.3
2017-Apr-19 13:00N 36°45' W 076°18'3 5.4
2017-Apr-19 12:30N 36°48' W 076°18'2 4.2
2017-Apr-19 12:01N 36°50' W 076°18'2 2.5
2017-Apr-19 11:22N 36°50' W 076°16'0 0.1
2017-Apr-19 10:37N 36°50' W 076°16'0 4.3
2017-Apr-19 10:31N 36°50' W 076°16'2 4.6
2017-Apr-19 10:00N 36°52' W 076°19'1 0.0
2017-Apr-18 01:38N 36°52' W 076°20'1 6.2
2017-Apr-18 01:30N 36°52' W 076°19'2 4.7
2017-Apr-18 01:01N 36°50' W 076°17'1 1.3
2017-Apr-18 00:31N 36°50' W 076°16'0 0.0
2017-Apr-18 00:01N 36°50' W 076°16'0 0.0
2017-Apr-17 23:25N 36°50' W 076°16'0 0.0
2017-Apr-17 23:01N 36°50' W 076°16'0 0.0
2017-Apr-17 22:31N 36°50' W 076°16'0 0.0
2017-Apr-17 22:01N 36°50' W 076°16'0 0.0
2017-Apr-17 21:31N 36°50' W 076°16'0 0.0
2017-Apr-17 21:00N 36°50' W 076°16'0 0.2
2017-Apr-17 20:29N 36°50' W 076°16'1 2.9
2017-Apr-17 20:01N 36°50' W 076°18'3 6.0
2017-Apr-17 19:31N 36°47' W 076°18'0 0.0
2017-Apr-17 19:01N 36°47' W 076°18'1 2.3
2017-Apr-17 18:30N 36°49' W 076°17'2 3.5
2017-Apr-17 18:01N 36°50' W 076°17'0 0.0
2017-Apr-17 17:31N 36°50' W 076°17'0 0.0
2017-Apr-17 17:01N 36°50' W 076°17'0 0.0
2017-Apr-17 16:30N 36°50' W 076°17'0 0.0
2017-Apr-17 15:17N 36°50' W 076°17'0 0.0
2017-Apr-17 15:01N 36°50' W 076°17'0 0.0
2017-Apr-17 14:01N 36°50' W 076°17'0 0.0
2017-Apr-17 13:30N 36°50' W 076°17'0 0.0
2017-Apr-17 13:00N 36°50' W 076°17'0 0.0
2017-Apr-17 12:30N 36°50' W 076°17'0 0.0
2017-Apr-17 12:01N 36°50' W 076°17'0 0.0
2017-Apr-17 11:31N 36°50' W 076°17'0 0.0
2017-Apr-17 11:01N 36°50' W 076°17'0 0.0
2017-Apr-17 10:30N 36°50' W 076°17'0 0.0
2017-Apr-17 10:01N 36°50' W 076°17'0 0.0
2017-Apr-17 09:31N 36°50' W 076°17'0 0.0
2017-Apr-17 09:01N 36°50' W 076°17'0 0.0
2017-Apr-17 08:31N 36°50' W 076°17'0 0.0
2017-Apr-17 08:01N 36°50' W 076°17'0 0.0
2017-Apr-17 07:31N 36°50' W 076°17'0 0.0
2017-Apr-17 07:01N 36°50' W 076°17'0 0.0
2017-Apr-17 06:31N 36°50' W 076°17'0 0.0
2017-Apr-17 06:01N 36°50' W 076°17'0 0.0
2017-Apr-17 05:30N 36°50' W 076°17'0 0.0
2017-Apr-17 05:00N 36°50' W 076°17'0 0.0
2017-Apr-17 04:30N 36°50' W 076°17'0 0.0
2017-Apr-17 04:00N 36°50' W 076°17'0 0.0
2017-Apr-17 03:30N 36°50' W 076°17'0 0.0
2017-Apr-17 03:01N 36°50' W 076°17'0 0.0
2017-Apr-17 02:31N 36°50' W 076°17'0 0.0
2017-Apr-17 02:01N 36°50' W 076°17'0 0.0
2017-Apr-17 01:31N 36°50' W 076°17'0 0.0
2017-Apr-17 01:00N 36°50' W 076°17'0 0.0
2017-Apr-17 00:31N 36°50' W 076°17'0 0.0
2017-Apr-17 00:01N 36°50' W 076°17'0 0.0
2017-Apr-16 23:31N 36°50' W 076°17'0 0.0
2017-Apr-16 23:01N 36°50' W 076°17'0 0.0
2017-Apr-16 22:31N 36°50' W 076°17'1 2.6
2017-Apr-16 22:00N 36°50' W 076°16'1 2.1
2017-Apr-16 21:30N 36°51' W 076°17'3 5.6
2017-Apr-16 20:59N 36°52' W 076°20'  
Track history (hours):
 
Tides and Currents Weather Stations Pressure Air Temp Water Temp Dewpoint Dewpoint Depression Visibility Wind Speed Wind Dir Waves Ship Positions

Fort Pike

Owner: Salisbury Towing Corporation, Chesapeak, VA. More information available from US FCC via Universal Licensing System and Coast Guard Vessel Documentation Center.

Last reported at 2017-Apr-26 11:09 UTC. Time now 2017-Apr-26 19:28 UTC.
Position N 36°43' W 076°14'.

Length 18 m; draft 2.5 m.

Type: Tug. MMSI: 366948310.

Date/timePositionNaut miles runAvg speedWind from/ knotsBaromVisibWave heightAir tempDewpointWater temp
2017-Apr-26 11:09N 36°43' W 076°14'1 0.8
2017-Apr-26 10:06N 36°43' W 076°15'0 0.8
2017-Apr-26 10:00N 36°43' W 076°15'3 5.1
2017-Apr-26 09:30N 36°45' W 076°18'2 5.0
2017-Apr-26 09:00N 36°47' W 076°18'3 6.2
2017-Apr-26 08:30N 36°50' W 076°18'2 3.0
2017-Apr-26 08:00N 36°50' W 076°16'4 1.1
2017-Apr-26 04:31N 36°52' W 076°20'0 9.4
2017-Apr-26 04:30N 36°52' W 076°20'3 6.4
2017-Apr-26 04:00N 36°50' W 076°17'1 0.2
2017-Apr-26 01:23N 36°50' W 076°16'0 0.0
2017-Apr-26 00:54N 36°50' W 076°16'0 0.0
2017-Apr-26 00:22N 36°50' W 076°16'0 0.1
2017-Apr-25 23:54N 36°50' W 076°16'0 0.2
2017-Apr-25 23:30N 36°50' W 076°16'3 5.6
2017-Apr-25 22:57N 36°52' W 076°19'0 0.4
2017-Apr-25 22:30N 36°51' W 076°20'3 5.9
2017-Apr-25 22:00N 36°49' W 076°17'3 5.8
2017-Apr-25 21:30N 36°46' W 076°18'1 1.4
2017-Apr-25 21:00N 36°46' W 076°18'1 1.6
2017-Apr-25 20:30N 36°45' W 076°18'2 4.2
2017-Apr-25 20:01N 36°47' W 076°18'3 6.2
2017-Apr-25 19:30N 36°50' W 076°18'0 0.8
2017-Apr-25 18:57N 36°50' W 076°17'0 0.0
2017-Apr-25 18:30N 36°50' W 076°17'2 3.0
2017-Apr-25 18:00N 36°50' W 076°16'1 0.5
2017-Apr-25 16:34N 36°50' W 076°15'0 0.0
2017-Apr-25 16:30N 36°50' W 076°15'0 0.0
2017-Apr-25 15:57N 36°50' W 076°15'2 4.6
2017-Apr-25 15:30N 36°51' W 076°17'0 0.5
2017-Apr-25 15:00N 36°50' W 076°17'0 0.0
2017-Apr-25 14:30N 36°50' W 076°17'0 0.0
2017-Apr-25 13:30N 36°50' W 076°17'0 0.0
2017-Apr-25 13:00N 36°50' W 076°17'0 0.0
2017-Apr-25 12:30N 36°50' W 076°17'0 0.8
2017-Apr-25 12:00N 36°50' W 076°17'0 0.7
2017-Apr-25 11:28N 36°50' W 076°17'0 0.0
2017-Apr-25 10:58N 36°50' W 076°17'0 0.0
2017-Apr-25 10:28N 36°50' W 076°17'0 0.8
2017-Apr-25 10:00N 36°51' W 076°18'0 0.7
2017-Apr-25 09:29N 36°50' W 076°17'0 0.0
2017-Apr-25 08:59N 36°50' W 076°17'0 0.0
2017-Apr-25 08:29N 36°50' W 076°17'0 0.0
2017-Apr-25 07:59N 36°50' W 076°17'0 0.0
2017-Apr-25 07:29N 36°50' W 076°17'0 0.0
2017-Apr-25 06:59N 36°50' W 076°17'0 0.0
2017-Apr-25 06:29N 36°50' W 076°17'0 0.0
2017-Apr-25 05:59N 36°50' W 076°17'0 0.0
2017-Apr-25 05:26N 36°50' W 076°17'0 0.0
2017-Apr-25 04:59N 36°50' W 076°17'0 0.0
2017-Apr-25 04:29N 36°50' W 076°17'0 0.0
2017-Apr-25 03:59N 36°50' W 076°17'0 0.0
2017-Apr-25 03:29N 36°50' W 076°17'0 0.0
2017-Apr-25 03:00N 36°50' W 076°17'0 0.0
2017-Apr-25 02:30N 36°50' W 076°17'0 0.0
2017-Apr-25 02:00N 36°50' W 076°17'0 0.0
2017-Apr-25 01:31N 36°50' W 076°17'0 0.0
2017-Apr-25 01:00N 36°50' W 076°17'0 0.0
2017-Apr-25 00:30N 36°50' W 076°17'1 2.4
2017-Apr-25 00:00N 36°49' W 076°17'0 0.0
2017-Apr-24 23:30N 36°49' W 076°17'0 0.0
2017-Apr-24 23:00N 36°49' W 076°17'2 3.4
2017-Apr-24 22:30N 36°47' W 076°18'0 0.0
2017-Apr-24 22:00N 36°47' W 076°18'0 0.0
2017-Apr-24 21:30N 36°47' W 076°18'0 0.0
2017-Apr-24 21:00N 36°47' W 076°18'0 0.0
2017-Apr-24 20:30N 36°47' W 076°18'0 0.0
2017-Apr-24 20:00N 36°47' W 076°18'0 0.0
2017-Apr-24 19:30N 36°47' W 076°18'0 0.0
2017-Apr-24 19:00N 36°47' W 076°18'0 0.0
2017-Apr-24 18:30N 36°47' W 076°18'0 0.0
2017-Apr-24 18:00N 36°47' W 076°18'2 3.1
2017-Apr-24 17:30N 36°49' W 076°18'1 1.5
2017-Apr-24 17:00N 36°50' W 076°18'2 4.5
2017-Apr-24 16:30N 36°50' W 076°15'0 0.2
2017-Apr-24 16:00N 36°50' W 076°15'0 0.0
2017-Apr-24 15:30N 36°50' W 076°15'0 0.0
2017-Apr-24 15:00N 36°50' W 076°15'0 0.0
2017-Apr-24 14:30N 36°50' W 076°15'2 1.7
2017-Apr-24 13:30N 36°50' W 076°17'2 3.0
2017-Apr-24 12:55N 36°50' W 076°15'0 0.4
2017-Apr-24 12:30N 36°50' W 076°15'1 2.8
2017-Apr-24 12:00N 36°50' W 076°17'0 0.7
2017-Apr-24 11:30N 36°50' W 076°17'1 2.0
2017-Apr-24 11:01N 36°50' W 076°16'0 0.0
2017-Apr-24 10:30N 36°50' W 076°16'0 0.0
2017-Apr-24 10:00N 36°50' W 076°16'0 0.0
2017-Apr-24 09:30N 36°50' W 076°16'0 0.0
2017-Apr-24 09:00N 36°50' W 076°16'0 0.0
2017-Apr-24 08:30N 36°50' W 076°16'0 0.0
2017-Apr-24 08:00N 36°50' W 076°16'0 0.0
2017-Apr-24 07:30N 36°50' W 076°16'0 0.0
2017-Apr-24 07:00N 36°50' W 076°16'0 0.0
2017-Apr-24 06:30N 36°50' W 076°16'0 0.0
2017-Apr-24 06:01N 36°50' W 076°16'0 0.0
2017-Apr-24 05:30N 36°50' W 076°16'0 0.0
2017-Apr-24 05:00N 36°50' W 076°16'0 0.0
2017-Apr-24 04:30N 36°50' W 076°16'0 0.0
2017-Apr-24 04:00N 36°50' W 076°16'0 0.0
2017-Apr-24 03:30N 36°50' W 076°16'0 0.0
2017-Apr-24 03:00N 36°50' W 076°16'0 0.0
2017-Apr-24 02:30N 36°50' W 076°16'0 0.0
2017-Apr-24 02:00N 36°50' W 076°16'0 0.0
2017-Apr-24 01:30N 36°50' W 076°16'0 0.0
2017-Apr-24 01:00N 36°50' W 076°16'0 0.0
2017-Apr-24 00:30N 36°50' W 076°16'0 0.0
2017-Apr-24 00:00N 36°50' W 076°16'0 0.0
2017-Apr-23 23:30N 36°50' W 076°16'0 0.0
2017-Apr-23 23:00N 36°50' W 076°16'0 0.0
2017-Apr-23 22:30N 36°50' W 076°16'0 0.0
2017-Apr-23 22:00N 36°50' W 076°16'0 0.0
2017-Apr-23 21:30N 36°50' W 076°16'0 0.5
2017-Apr-23 21:00N 36°50' W 076°16'1 2.1
2017-Apr-23 20:30N 36°50' W 076°17'0 0.0
2017-Apr-23 20:00N 36°50' W 076°17'0 0.0
2017-Apr-23 19:30N 36°50' W 076°17'0 0.0
2017-Apr-23 19:01N 36°50' W 076°17'0 0.0
2017-Apr-23 18:30N 36°50' W 076°17'0 0.0
2017-Apr-23 18:00N 36°50' W 076°17'0 0.0
2017-Apr-23 17:30N 36°50' W 076°17'0 0.0
2017-Apr-23 17:00N 36°50' W 076°17'0 0.0
2017-Apr-23 16:30N 36°50' W 076°17'0 0.0
2017-Apr-23 16:00N 36°50' W 076°17'0 0.0
2017-Apr-23 15:30N 36°50' W 076°17'0 0.0
2017-Apr-23 15:00N 36°50' W 076°17'0 0.0
2017-Apr-23 14:00N 36°50' W 076°17'0 0.0
2017-Apr-23 13:30N 36°50' W 076°17'0 0.0
2017-Apr-23 13:00N 36°50' W 076°17'0 0.0
2017-Apr-23 12:30N 36°50' W 076°17'0 0.0
2017-Apr-23 12:00N 36°50' W 076°17'0 0.0
2017-Apr-23 11:30N 36°50' W 076°17'0 0.0
2017-Apr-23 11:00N 36°50' W 076°17'0 0.0
2017-Apr-23 10:30N 36°50' W 076°17'0 0.0
2017-Apr-23 10:00N 36°50' W 076°17'0 0.0
2017-Apr-23 09:30N 36°50' W 076°17'2 3.9
2017-Apr-23 09:00N 36°48' W 076°17'3 5.9
2017-Apr-23 08:30N 36°45' W 076°18'1 2.2
2017-Apr-23 08:00N 36°44' W 076°18'3 5.6
2017-Apr-23 07:30N 36°47' W 076°18'1 1.1
2017-Apr-23 07:00N 36°47' W 076°18'0 0.6
2017-Apr-23 06:30N 36°47' W 076°18'2 0.3
2017-Apr-22 22:52N 36°45' W 076°18'2 5.7
2017-Apr-22 22:31N 36°47' W 076°18'3 6.0
2017-Apr-22 22:00N 36°50' W 076°18'2 3.0
2017-Apr-22 21:28N 36°50' W 076°16'3 5.9
2017-Apr-22 20:55N 36°51' W 076°20'1 2.9
2017-Apr-22 20:30N 36°51' W 076°18'2 3.0
2017-Apr-22 19:50N 36°50' W 076°16'1 2.1
2017-Apr-22 19:30N 36°50' W 076°17'3 5.2
2017-Apr-22 18:56N 36°52' W 076°20'3 0.1
2017-Apr-21 13:28N 36°55' W 076°20'3 7.6
2017-Apr-21 13:00N 36°52' W 076°19'3 5.7
2017-Apr-21 12:30N 36°50' W 076°16'1 1.1
2017-Apr-21 12:00N 36°50' W 076°17'1 1.1
2017-Apr-21 11:30N 36°50' W 076°17'0 0.1
2017-Apr-21 10:57N 36°50' W 076°17'0 0.0
2017-Apr-21 10:24N 36°50' W 076°17'0 0.0
2017-Apr-21 10:00N 36°50' W 076°17'0 0.0
2017-Apr-21 09:30N 36°50' W 076°17'0 0.0
2017-Apr-21 09:00N 36°50' W 076°17'0 0.0
2017-Apr-21 08:30N 36°50' W 076°17'0 0.0
2017-Apr-21 07:48N 36°50' W 076°17'0 0.0
2017-Apr-21 07:30N 36°50' W 076°17'0 0.0
2017-Apr-21 07:00N 36°50' W 076°17'0 0.0
2017-Apr-21 06:30N 36°50' W 076°17'0 0.0
2017-Apr-21 06:00N 36°50' W 076°17'0 0.0
2017-Apr-21 05:30N 36°50' W 076°17'0 0.0
2017-Apr-21 05:00N 36°50' W 076°17'0 0.0
2017-Apr-21 04:30N 36°50' W 076°17'0 0.0
2017-Apr-21 03:54N 36°50' W 076°17'0 0.0
2017-Apr-21 03:27N 36°50' W 076°17'0 0.0
2017-Apr-21 02:51N 36°50' W 076°17'0 0.0
2017-Apr-21 02:30N 36°50' W 076°17'0 0.0
2017-Apr-21 02:00N 36°50' W 076°17'0 0.0
2017-Apr-21 01:30N 36°50' W 076°17'0 0.0
2017-Apr-21 01:00N 36°50' W 076°17'0 0.0
2017-Apr-21 00:27N 36°50' W 076°17'0 0.0
2017-Apr-21 00:00N 36°50' W 076°17'0 0.0
2017-Apr-20 23:24N 36°50' W 076°17'0 0.0
2017-Apr-20 23:00N 36°50' W 076°17'0 0.0
2017-Apr-20 22:30N 36°50' W 076°17'0 0.0
2017-Apr-20 22:00N 36°50' W 076°17'0 0.0
2017-Apr-20 21:30N 36°50' W 076°17'0 0.0
2017-Apr-20 21:00N 36°50' W 076°17'0 0.0
2017-Apr-20 20:30N 36°50' W 076°17'0 0.0
2017-Apr-20 20:00N 36°50' W 076°17'0 0.0
2017-Apr-20 19:30N 36°50' W 076°17'0 0.0
2017-Apr-20 18:59N 36°50' W 076°17'0 0.0
2017-Apr-20 18:29N 36°50' W 076°17'0 0.0
2017-Apr-20 17:59N 36°50' W 076°17'0 0.0
2017-Apr-20 17:24N 36°50' W 076°17'0 0.0
2017-Apr-20 16:59N 36°50' W 076°17'0 0.0
2017-Apr-20 16:30N 36°50' W 076°17'0 0.0
2017-Apr-20 15:42N 36°50' W 076°17'0 0.0
2017-Apr-20 15:24N 36°50' W 076°17'0 0.0
2017-Apr-20 14:36N 36°50' W 076°17'0 0.0
2017-Apr-20 14:24N 36°50' W 076°17'0 0.0
2017-Apr-20 13:29N 36°50' W 076°17'0 0.0
2017-Apr-20 12:50N 36°50' W 076°17'0 0.0
2017-Apr-20 12:29N 36°50' W 076°17'0 0.0
2017-Apr-20 12:00N 36°50' W 076°17'0 0.0
2017-Apr-20 11:21N 36°50' W 076°17'0 0.0
2017-Apr-20 11:00N 36°50' W 076°17'0 0.0
2017-Apr-20 10:29N 36°50' W 076°17'0 0.0
2017-Apr-20 09:59N 36°50' W 076°17'0 0.0
2017-Apr-20 09:29N 36°50' W 076°17'0 0.0
2017-Apr-20 09:00N 36°50' W 076°17'0 0.0
2017-Apr-20 08:29N 36°50' W 076°17'0 0.0
2017-Apr-20 08:00N 36°50' W 076°17'0 0.0
2017-Apr-20 07:29N 36°50' W 076°17'0 0.0
2017-Apr-20 06:59N 36°50' W 076°17'0 0.0
2017-Apr-20 06:29N 36°50' W 076°17'0 0.0
2017-Apr-20 05:59N 36°50' W 076°17'0 0.0
2017-Apr-20 05:29N 36°50' W 076°17'0 0.0
2017-Apr-20 05:00N 36°50' W 076°17'0 0.0
2017-Apr-20 04:29N 36°50' W 076°17'0 0.0
2017-Apr-20 03:59N 36°50' W 076°17'0 0.0
2017-Apr-20 03:29N 36°50' W 076°17'0 0.0
2017-Apr-20 02:59N 36°50' W 076°17'0 0.0
2017-Apr-20 01:44N 36°50' W 076°17'0 0.0
2017-Apr-20 01:29N 36°50' W 076°17'0 0.0
2017-Apr-19 23:59N 36°50' W 076°17'0 0.0
2017-Apr-19 23:29N 36°50' W 076°17'0 0.0
2017-Apr-19 22:32N 36°50' W 076°17'0 0.0
2017-Apr-19 22:29N 36°50' W 076°17'0 0.0
2017-Apr-19 21:53N 36°50' W 076°17'0 0.0
2017-Apr-19 20:53N 36°50' W 076°17'0 0.0
2017-Apr-19 20:29N 36°50' W 076°17'0 0.0
2017-Apr-19 19:56N 36°50' W 076°17'0 0.0
2017-Apr-19 19:29N 36°50' W 076°17'0 0.0
2017-Apr-19 18:59N 36°50' W 076°17'0 0.0
2017-Apr-19 18:31N 36°50' W 076°17'0 0.0
2017-Apr-19 18:01N 36°50' W 076°17'0 0.0
2017-Apr-19 17:30N 36°50' W 076°17'0 0.0
2017-Apr-19 16:59N 36°50' W 076°17'0 0.0
2017-Apr-19 16:30N 36°50' W 076°17'0 0.0
2017-Apr-19 16:01N 36°50' W 076°17'0 0.1
2017-Apr-19 15:31N 36°50' W 076°17'0 0.3
2017-Apr-19 15:00N 36°51' W 076°17'1 2.3
2017-Apr-19 14:30N 36°50' W 076°16'5 4.7
2017-Apr-19 13:31N 36°46' W 076°18'1 2.3
2017-Apr-19 13:00N 36°45' W 076°18'3 5.4
2017-Apr-19 12:30N 36°48' W 076°18'2 4.2
2017-Apr-19 12:01N 36°50' W 076°18'2 2.5
2017-Apr-19 11:22N 36°50' W 076°16'0 0.1
2017-Apr-19 10:37N 36°50' W 076°16'0 4.3
2017-Apr-19 10:31N 36°50' W 076°16'2 4.6
2017-Apr-19 10:00N 36°52' W 076°19'1 0.0
2017-Apr-18 01:38N 36°52' W 076°20'1 6.2
2017-Apr-18 01:30N 36°52' W 076°19'2 4.7
2017-Apr-18 01:01N 36°50' W 076°17'1 1.3
2017-Apr-18 00:31N 36°50' W 076°16'0 0.0
2017-Apr-18 00:01N 36°50' W 076°16'0 0.0
2017-Apr-17 23:25N 36°50' W 076°16'0 0.0
2017-Apr-17 23:01N 36°50' W 076°16'0 0.0
2017-Apr-17 22:31N 36°50' W 076°16'0 0.0
2017-Apr-17 22:01N 36°50' W 076°16'0 0.0
2017-Apr-17 21:31N 36°50' W 076°16'0 0.0
2017-Apr-17 21:00N 36°50' W 076°16'0 0.2
2017-Apr-17 20:29N 36°50' W 076°16'1 2.9
2017-Apr-17 20:01N 36°50' W 076°18'3 6.0
2017-Apr-17 19:31N 36°47' W 076°18'0 0.0
2017-Apr-17 19:01N 36°47' W 076°18'1 2.3
2017-Apr-17 18:30N 36°49' W 076°17'2 3.5
2017-Apr-17 18:01N 36°50' W 076°17'0 0.0
2017-Apr-17 17:31N 36°50' W 076°17'0 0.0
2017-Apr-17 17:01N 36°50' W 076°17'0 0.0
2017-Apr-17 16:30N 36°50' W 076°17'0 0.0
2017-Apr-17 15:17N 36°50' W 076°17'0 0.0
2017-Apr-17 15:01N 36°50' W 076°17'0 0.0
2017-Apr-17 14:01N 36°50' W 076°17'0 0.0
2017-Apr-17 13:30N 36°50' W 076°17'0 0.0
2017-Apr-17 13:00N 36°50' W 076°17'0 0.0
2017-Apr-17 12:30N 36°50' W 076°17'0 0.0
2017-Apr-17 12:01N 36°50' W 076°17'0 0.0
2017-Apr-17 11:31N 36°50' W 076°17'0 0.0
2017-Apr-17 11:01N 36°50' W 076°17'0 0.0
2017-Apr-17 10:30N 36°50' W 076°17'0 0.0
2017-Apr-17 10:01N 36°50' W 076°17'0 0.0
2017-Apr-17 09:31N 36°50' W 076°17'0 0.0
2017-Apr-17 09:01N 36°50' W 076°17'0 0.0
2017-Apr-17 08:31N 36°50' W 076°17'0 0.0
2017-Apr-17 08:01N 36°50' W 076°17'0 0.0
2017-Apr-17 07:31N 36°50' W 076°17'0 0.0
2017-Apr-17 07:01N 36°50' W 076°17'0 0.0
2017-Apr-17 06:31N 36°50' W 076°17'0 0.0
2017-Apr-17 06:01N 36°50' W 076°17'0 0.0
2017-Apr-17 05:30N 36°50' W 076°17'0 0.0
2017-Apr-17 05:00N 36°50' W 076°17'0 0.0
2017-Apr-17 04:30N 36°50' W 076°17'0 0.0
2017-Apr-17 04:00N 36°50' W 076°17'0 0.0
2017-Apr-17 03:30N 36°50' W 076°17'0 0.0
2017-Apr-17 03:01N 36°50' W 076°17'0 0.0
2017-Apr-17 02:31N 36°50' W 076°17'0 0.0
2017-Apr-17 02:01N 36°50' W 076°17'0 0.0
2017-Apr-17 01:31N 36°50' W 076°17'0 0.0
2017-Apr-17 01:00N 36°50' W 076°17'0 0.0
2017-Apr-17 00:31N 36°50' W 076°17'0 0.0
2017-Apr-17 00:01N 36°50' W 076°17'0 0.0
2017-Apr-16 23:31N 36°50' W 076°17'0 0.0
2017-Apr-16 23:01N 36°50' W 076°17'0 0.0
2017-Apr-16 22:31N 36°50' W 076°17'1 2.6
2017-Apr-16 22:00N 36°50' W 076°16'1 2.1
2017-Apr-16 21:30N 36°51' W 076°17'3 5.6
2017-Apr-16 20:59N 36°52' W 076°20'  

Dump ship's entire track history